Time;durP1;ratioP1;P1;durP2;ratioP2;P2;SDS_P1;SDS_P2;PMS_P1;PMS_P2;Temp;Humidity;BMP_temperature;BMP_pressure;BME280_temperature;BME280_humidity;BME280_pressure;Samples;Min_cycle;Max_cycle;Signal;HPM_P1;HPM_P2
2021/09/15 00:02:09;;;;;;;15.70;11.57;;;;;;;17.44;74.52;100838.00;4952981;28;20046;-80
2021/09/15 00:04:36;;;;;;;18.67;12.85;;;;;;;17.42;74.50;100845.97;4954412;28;20051;-81
2021/09/15 00:07:02;;;;;;;19.15;10.15;;;;;;;17.42;74.52;100857.16;4954655;28;20053;-81
2021/09/15 00:09:30;;;;;;;20.40;13.98;;;;;;;17.42;74.58;100857.16;4952452;28;20122;-80
2021/09/15 00:11:57;;;;;;;20.13;12.25;;;;;;;17.42;74.86;100857.16;4940874;28;20047;-81
2021/09/15 00:14:24;;;;;;;23.40;13.52;;;;;;;17.44;74.83;100860.41;4943282;28;20479;-81
2021/09/15 00:16:51;;;;;;;19.23;12.10;;;;;;;17.45;74.79;100855.59;4949657;28;20054;-81
2021/09/15 00:19:18;;;;;;;15.15;11.00;;;;;;;17.42;74.83;100857.16;4934729;28;20075;-80
2021/09/15 00:21:45;;;;;;;16.80;12.02;;;;;;;17.36;75.34;100850.34;4949334;28;20039;-81
2021/09/15 00:24:12;;;;;;;19.10;12.02;;;;;;;17.34;75.33;100849.13;4935386;28;20043;-81
2021/09/15 00:26:38;;;;;;;20.90;13.38;;;;;;;17.35;75.24;100854.34;4953175;28;20133;-80
2021/09/15 00:29:05;;;;;;;19.65;14.10;;;;;;;17.37;75.29;100851.94;4954179;28;20039;-80
2021/09/15 00:31:32;;;;;;;22.83;14.32;;;;;;;17.39;75.52;100852.38;4951800;28;20082;-80
2021/09/15 00:33:59;;;;;;;20.00;14.60;;;;;;;17.39;75.37;100852.38;4935329;28;20143;-80
2021/09/15 00:36:25;;;;;;;23.83;14.82;;;;;;;17.38;75.25;100850.75;4955824;28;20138;-80
2021/09/15 00:38:52;;;;;;;20.13;14.30;;;;;;;17.36;75.15;100853.16;4940463;29;20043;-80
2021/09/15 00:41:19;;;;;;;19.48;13.82;;;;;;;17.34;75.50;100855.50;4956149;28;20472;-81
2021/09/15 00:43:56;;;;;;;20.98;14.35;;;;;;;17.32;75.80;100855.09;4959427;28;20045;-80
2021/09/15 00:46:23;;;;;;;21.35;14.65;;;;;;;17.33;75.49;100859.53;4954585;28;20035;-80
2021/09/15 00:48:50;;;;;;;19.05;13.20;;;;;;;17.34;75.70;100849.91;4954571;28;20040;-80
2021/09/15 00:51:17;;;;;;;20.77;13.63;;;;;;;17.35;75.79;100845.94;4952196;28;20048;-80
2021/09/15 00:53:44;;;;;;;19.05;14.10;;;;;;;17.36;75.71;100836.34;4957990;28;20146;-80
2021/09/15 00:56:11;;;;;;;23.15;15.73;;;;;;;17.37;75.81;100848.34;4953355;28;20150;-80
2021/09/15 00:58:38;;;;;;;20.73;14.68;;;;;;;17.36;75.80;100855.13;4952280;28;20496;-80
2021/09/15 01:01:05;;;;;;;19.27;15.77;;;;;;;17.32;76.09;100852.31;4935691;28;20075;-80
2021/09/15 01:03:32;;;;;;;19.73;14.50;;;;;;;17.33;75.94;100853.91;4949448;28;20097;-81
2021/09/15 01:05:58;;;;;;;21.10;14.70;;;;;;;17.35;75.91;100859.13;4960794;28;20046;-81
2021/09/15 01:08:26;;;;;;;21.92;13.60;;;;;;;17.34;76.14;100855.50;4935503;28;20047;-81
2021/09/15 01:10:53;;;;;;;23.00;16.38;;;;;;;17.32;76.24;100851.50;4955819;28;20571;-81
2021/09/15 01:13:21;;;;;;;23.05;16.58;;;;;;;17.28;76.08;100851.50;4955420;28;20040;-81
2021/09/15 01:15:48;;;;;;;27.00;17.60;;;;;;;17.26;76.38;100848.25;4954655;28;20041;-81
2021/09/15 01:18:19;;;;;;;22.30;15.55;;;;;;;17.27;76.51;100849.88;4937990;28;20125;-80
2021/09/15 01:20:46;;;;;;;30.25;18.63;;;;;;;17.28;76.28;100851.50;4946971;28;20047;-80
2021/09/15 01:23:13;;;;;;;23.10;17.45;;;;;;;17.29;76.27;100850.28;4941563;28;20059;-81
2021/09/15 01:25:40;;;;;;;25.98;17.00;;;;;;;17.30;76.59;100853.88;4958219;28;20047;-80
2021/09/15 01:28:07;;;;;;;26.23;16.95;;;;;;;17.30;76.18;100851.09;4957634;28;20043;-81
2021/09/15 01:30:34;;;;;;;29.55;19.40;;;;;;;17.30;76.33;100851.09;4958610;28;20055;-80
2021/09/15 01:33:00;;;;;;;25.15;18.02;;;;;;;17.27;76.60;100849.06;4939535;29;20054;-80
2021/09/15 01:35:27;;;;;;;24.35;17.40;;;;;;;17.23;76.58;100854.66;4954989;28;20053;-80
2021/09/15 01:37:54;;;;;;;28.85;17.67;;;;;;;17.23;76.63;100854.66;4938186;28;20046;-80
2021/09/15 01:40:34;;;;;;;25.92;17.40;;;;;;;17.22;77.01;100858.63;4937253;28;20055;-80
2021/09/15 01:43:01;;;;;;;23.27;17.08;;;;;;;17.23;76.70;100857.44;4954617;28;20067;-80
2021/09/15 01:45:28;;;;;;;28.48;17.55;;;;;;;17.22;76.75;100850.22;4953345;28;20533;-80
2021/09/15 01:47:55;;;;;;;26.33;17.15;;;;;;;17.23;76.95;100853.84;4954016;28;20047;-81
2021/09/15 01:50:22;;;;;;;25.25;15.73;;;;;;;17.24;76.76;100852.63;4959477;28;20043;-80
2021/09/15 01:52:49;;;;;;;22.58;16.05;;;;;;;17.20;77.08;100849.81;4965654;28;20049;-80
2021/09/15 01:55:25;;;;;;;25.70;16.95;;;;;;;17.16;77.29;100848.97;4954562;28;22430;-80
2021/09/15 01:57:51;;;;;;;25.73;18.65;;;;;;;17.18;77.25;100845.81;4937443;28;20386;-80
2021/09/15 02:00:19;;;;;;;29.95;19.20;;;;;;;17.17;77.26;100842.19;4939047;28;20507;-80
2021/09/15 02:02:48;;;;;;;26.88;17.67;;;;;;;17.15;77.04;100850.19;4963118;28;20042;-80
2021/09/15 02:05:15;;;;;;;27.27;16.92;;;;;;;17.16;77.10;100837.78;4959389;28;20130;-80
2021/09/15 02:07:41;;;;;;;19.20;13.90;;;;;;;17.15;77.20;100846.56;4955620;28;20051;-80
2021/09/15 02:10:09;;;;;;;21.75;13.50;;;;;;;17.11;77.24;100846.53;4936492;29;20054;-80
2021/09/15 02:12:36;;;;;;;20.85;13.50;;;;;;;17.11;77.14;100852.13;4957605;28;20082;-80
2021/09/15 02:15:05;;;;;;;20.00;13.18;;;;;;;17.13;77.23;100843.38;4949408;28;20039;-79
2021/09/15 02:17:32;;;;;;;18.58;13.43;;;;;;;17.12;77.27;100842.56;4945311;28;20047;-81
2021/09/15 02:19:58;;;;;;;20.85;15.10;;;;;;;17.11;77.33;100840.13;4938088;29;20071;-80
2021/09/15 02:22:25;;;;;;;18.23;13.52;;;;;;;17.09;77.30;100837.72;4951466;28;20043;-81
2021/09/15 02:24:52;;;;;;;16.80;12.43;;;;;;;17.07;77.41;100839.31;4937205;29;20102;-80
2021/09/15 02:27:19;;;;;;;19.42;13.88;;;;;;;17.06;77.66;100841.31;4955102;28;20503;-80
2021/09/15 02:29:45;;;;;;;22.00;15.30;;;;;;;17.08;77.44;100840.94;4931071;29;20411;-80
2021/09/15 02:32:12;;;;;;;17.30;13.00;;;;;;;17.05;77.47;100845.28;4952201;28;20050;-80
2021/09/15 02:34:39;;;;;;;17.75;12.32;;;;;;;17.04;77.70;100840.88;4955366;28;20044;-80
2021/09/15 02:37:05;;;;;;;19.90;13.52;;;;;;;17.02;77.77;100837.69;4953770;28;20057;-80
2021/09/15 02:39:32;;;;;;;18.88;13.55;;;;;;;17.02;77.59;100837.69;4952147;28;20051;-80
2021/09/15 02:41:59;;;;;;;17.38;13.98;;;;;;;17.03;77.60;100836.47;4953732;28;20043;-80
2021/09/15 02:44:26;;;;;;;17.55;13.48;;;;;;;17.01;77.73;100836.88;4935197;28;20098;-80
2021/09/15 02:46:53;;;;;;;21.95;14.73;;;;;;;16.99;77.87;100838.44;4950798;28;20073;-80
2021/09/15 02:49:20;;;;;;;19.48;14.70;;;;;;;16.96;77.86;100826.03;4936608;29;20082;-80
2021/09/15 02:51:46;;;;;;;21.63;14.32;;;;;;;16.97;77.73;100824.06;4940407;28;20066;-81
2021/09/15 02:54:13;;;;;;;22.02;14.52;;;;;;;16.96;78.11;100828.84;4935863;28;20411;-81
2021/09/15 02:56:40;;;;;;;20.20;14.55;;;;;;;16.97;77.98;100824.06;4957629;28;20047;-80
2021/09/15 02:59:06;;;;;;;24.13;15.32;;;;;;;16.99;77.89;100821.66;4961972;28;20483;-80
2021/09/15 03:01:33;;;;;;;26.52;15.95;;;;;;;17.00;77.90;100826.06;4952994;28;20043;-80
2021/09/15 03:04:00;;;;;;;21.75;13.85;;;;;;;16.96;78.28;100823.25;4932511;29;20389;-80
2021/09/15 03:06:27;;;;;;;16.80;12.95;;;;;;;16.93;78.25;100812.03;4947850;28;20162;-80
2021/09/15 03:08:54;;;;;;;17.48;12.95;;;;;;;16.93;78.19;100812.03;4954073;28;20114;-80
2021/09/15 03:11:21;;;;;;;20.98;14.13;;;;;;;16.95;78.11;100815.22;4936424;28;20074;-81
2021/09/15 03:13:48;;;;;;;19.27;13.63;;;;;;;16.94;78.25;100820.00;4953679;28;20040;-80
2021/09/15 03:16:15;;;;;;;19.73;13.73;;;;;;;16.95;78.12;100821.63;4961940;28;20077;-80
2021/09/15 03:18:42;;;;;;;20.27;15.57;;;;;;;16.94;78.21;100816.44;4940006;29;20055;-80
2021/09/15 03:21:08;;;;;;;20.42;14.40;;;;;;;16.95;78.07;100815.22;4940138;28;20066;-80
2021/09/15 03:23:35;;;;;;;22.60;15.60;;;;;;;16.95;78.14;100809.63;4942066;28;20054;-80
2021/09/15 03:26:02;;;;;;;21.65;15.07;;;;;;;16.94;78.20;100808.81;4965640;28;20039;-80
2021/09/15 03:28:28;;;;;;;23.42;16.10;;;;;;;16.91;78.36;100806.81;4935094;29;20039;-80
2021/09/15 03:30:55;;;;;;;25.52;16.15;;;;;;;16.91;78.58;100809.63;4950282;28;20050;-81
2021/09/15 03:33:22;;;;;;;23.40;17.40;;;;;;;16.90;78.34;100802.41;4964447;28;20042;-80
2021/09/15 03:35:49;;;;;;;23.25;17.02;;;;;;;16.87;78.47;100805.97;4957221;28;20039;-80
2021/09/15 03:38:15;;;;;;;26.23;17.42;;;;;;;16.88;78.49;100815.16;4951184;28;20047;-80
2021/09/15 03:40:42;;;;;;;28.88;18.55;;;;;;;16.88;78.46;100806.78;4954476;28;20051;-80
2021/09/15 03:43:09;;;;;;;23.30;15.63;;;;;;;16.86;78.41;100807.19;4942769;28;20040;-81
2021/09/15 03:45:36;;;;;;;28.58;19.10;;;;;;;16.86;78.27;100811.97;4965610;28;20046;-80
2021/09/15 03:48:02;;;;;;;26.40;17.48;;;;;;;16.85;78.58;100813.16;4961591;28;20082;-80
2021/09/15 03:50:29;;;;;;;24.45;17.30;;;;;;;16.85;78.50;100810.34;4947958;28;20048;-80
2021/09/15 03:52:56;;;;;;;28.02;17.77;;;;;;;16.86;78.84;100814.75;4957663;28;20059;-80
2021/09/15 03:55:22;;;;;;;26.27;18.02;;;;;;;16.86;78.52;100818.38;4936218;29;20043;-80
2021/09/15 03:57:49;;;;;;;23.70;16.70;;;;;;;16.87;78.67;100816.34;4935320;29;20146;-80
2021/09/15 04:00:16;;;;;;;22.33;15.63;;;;;;;16.89;78.80;100817.56;4935307;28;20048;-80
2021/09/15 04:02:43;;;;;;;26.38;18.55;;;;;;;16.88;78.63;100818.78;4960066;28;20035;-80
2021/09/15 04:05:09;;;;;;;26.33;18.00;;;;;;;16.91;78.71;100822.78;4935023;28;20137;-80
2021/09/15 04:07:37;;;;;;;23.60;17.08;;;;;;;16.90;78.75;100816.41;4938148;28;20043;-80
2021/09/15 04:10:04;;;;;;;25.48;17.50;;;;;;;16.91;78.95;100822.78;4934409;29;20039;-80
2021/09/15 04:12:31;;;;;;;22.40;15.75;;;;;;;16.89;78.99;100823.16;4942991;28;20054;-80
2021/09/15 04:14:58;;;;;;;23.77;16.08;;;;;;;16.86;79.14;100817.56;4943054;28;20126;-81
2021/09/15 04:17:25;;;;;;;22.83;16.23;;;;;;;16.88;79.46;100820.78;4932495;29;20095;-80
2021/09/15 04:19:51;;;;;;;25.50;16.85;;;;;;;16.87;79.27;100811.56;4929995;29;20047;-80
2021/09/15 04:22:20;;;;;;;22.55;16.25;;;;;;;16.87;79.42;100819.16;4925908;29;20088;-81
2021/09/15 04:33:02;;;;;;;25.80;16.42;;;;;;;16.84;79.41;100819.91;4951218;29;20059;-80
2021/09/15 04:35:29;;;;;;;32.25;19.48;;;;;;;16.82;79.33;100811.13;4948770;28;20055;-80
2021/09/15 04:37:56;;;;;;;25.27;18.00;;;;;;;16.80;79.22;100808.72;4950284;28;20047;-80
2021/09/15 04:40:23;;;;;;;25.05;17.92;;;;;;;16.79;79.40;100811.88;4950444;29;20142;-80
2021/09/15 04:42:49;;;;;;;21.30;15.73;;;;;;;16.76;79.37;100813.47;4928946;29;20530;-80
2021/09/15 04:45:16;;;;;;;25.23;17.52;;;;;;;16.75;79.36;100813.84;4921128;29;20125;-80
2021/09/15 04:47:43;;;;;;;26.30;17.88;;;;;;;16.74;79.59;100821.44;4936639;29;20070;-80
2021/09/15 04:50:10;;;;;;;23.38;17.45;;;;;;;16.73;79.66;100813.44;4951704;28;20047;-81
2021/09/15 04:52:36;;;;;;;28.15;17.55;;;;;;;16.70;79.63;100809.44;4936767;29;20047;-80
2021/09/15 04:55:03;;;;;;;27.17;18.88;;;;;;;16.70;79.77;100819.81;4937382;29;20047;-80
2021/09/15 04:57:30;;;;;;;27.88;18.45;;;;;;;16.72;79.73;100823.00;4954067;28;20049;-80
2021/09/15 04:59:57;;;;;;;24.98;18.30;;;;;;;16.75;79.64;100827.84;4954163;28;20715;-80
2021/09/15 05:02:24;;;;;;;24.42;17.70;;;;;;;16.77;79.82;100831.03;4935925;29;20128;-80
2021/09/15 05:04:50;;;;;;;25.77;17.02;;;;;;;16.78;79.69;100821.47;4953005;28;20149;-80
2021/09/15 05:07:17;;;;;;;22.92;16.67;;;;;;;16.80;79.63;100833.88;4935918;29;20050;-80
2021/09/15 05:09:44;;;;;;;26.63;17.65;;;;;;;16.82;79.53;100833.50;4955907;28;20492;-80
2021/09/15 05:12:11;;;;;;;26.60;18.45;;;;;;;16.84;79.62;100833.91;4938643;29;20054;-80
2021/09/15 05:14:37;;;;;;;25.13;17.88;;;;;;;16.82;79.79;100830.69;4966501;28;20126;-80
2021/09/15 05:17:04;;;;;;;29.60;19.42;;;;;;;16.81;79.95;100829.09;4951558;28;20050;-80
2021/09/15 05:19:31;;;;;;;25.35;16.92;;;;;;;16.80;79.83;100833.06;4955452;28;20058;-81
2021/09/15 05:21:57;;;;;;;31.73;20.83;;;;;;;16.80;79.81;100824.69;4955058;28;20039;-80
2021/09/15 05:24:24;;;;;;;29.30;20.27;;;;;;;16.79;79.79;100823.06;4940099;28;20109;-81
2021/09/15 05:26:51;;;;;;;31.63;20.08;;;;;;;16.78;79.96;100827.06;4939640;28;20049;-79
2021/09/15 05:29:17;;;;;;;29.30;19.38;;;;;;;16.77;80.03;100831.03;4956631;28;20035;-80
2021/09/15 05:31:44;;;;;;;27.15;16.70;;;;;;;16.76;79.89;100833.03;4955464;28;20047;-80
2021/09/15 05:34:12;;;;;;;25.90;17.25;;;;;;;16.76;79.95;100835.03;4937334;29;20466;-80
2021/09/15 05:36:39;;;;;;;23.05;16.40;;;;;;;16.78;79.98;100833.47;4952309;28;20050;-80
2021/09/15 05:39:06;;;;;;;29.55;19.33;;;;;;;16.76;80.19;100837.84;4955998;28;20045;-80
2021/09/15 05:41:32;;;;;;;26.50;18.58;;;;;;;16.75;80.17;100834.25;4954388;28;20466;-81
2021/09/15 05:43:59;;;;;;;29.77;19.50;;;;;;;16.74;80.29;100832.63;4935464;28;20043;-80
2021/09/15 05:46:27;;;;;;;23.02;16.35;;;;;;;16.73;80.24;100831.00;4954524;28;20049;-80
2021/09/15 05:48:53;;;;;;;23.90;16.38;;;;;;;16.74;80.20;100843.00;4933510;28;20051;-80
2021/09/15 05:51:20;;;;;;;35.38;22.60;;;;;;;16.74;80.30;100845.78;4958354;28;20050;-80
2021/09/15 05:53:47;;;;;;;36.63;25.08;;;;;;;16.74;80.26;100832.63;4936365;29;20062;-80
2021/09/15 05:56:13;;;;;;;33.90;22.15;;;;;;;16.75;80.52;100842.63;4952731;28;20110;-80
2021/09/15 05:58:40;;;;;;;29.88;19.90;;;;;;;16.76;80.46;100846.22;4953095;29;20050;-80
2021/09/15 06:01:07;;;;;;;26.63;19.33;;;;;;;16.78;80.40;100843.84;4952172;28;20127;-80
2021/09/15 06:03:34;;;;;;;31.73;21.05;;;;;;;16.79;80.17;100842.63;4937327;28;20054;-80
2021/09/15 06:06:01;;;;;;;31.80;20.80;;;;;;;16.77;80.32;100840.25;4951140;28;20035;-80
2021/09/15 06:08:28;;;;;;;27.00;18.88;;;;;;;16.75;80.29;100844.59;4937327;28;20055;-80
2021/09/15 06:10:56;;;;;;;27.77;17.45;;;;;;;16.75;80.39;100853.00;4965317;28;20043;-80
2021/09/15 06:13:23;;;;;;;38.85;23.13;;;;;;;16.75;80.37;100847.41;4948743;28;20046;-80
2021/09/15 06:15:49;;;;;;;40.33;22.95;;;;;;;16.74;80.47;100848.59;4948178;28;20058;-80
2021/09/15 06:18:16;;;;;;;38.92;23.90;;;;;;;16.72;80.66;100850.97;4967784;28;20491;-80
2021/09/15 06:20:43;;;;;;;31.60;21.13;;;;;;;16.71;80.81;100852.94;4962357;28;20081;-80
2021/09/15 06:23:11;;;;;;;28.60;19.77;;;;;;;16.72;80.84;100850.97;4938314;28;20039;-80
2021/09/15 06:25:41;;;;;;;31.75;20.85;;;;;;;16.72;80.67;100867.75;4960780;28;20045;-80
2021/09/15 06:28:08;;;;;;;32.42;21.92;;;;;;;16.72;80.61;100856.56;4964370;28;20042;-80
2021/09/15 06:30:36;;;;;;;29.95;21.05;;;;;;;16.73;80.99;100858.97;4943499;28;20146;-80
2021/09/15 06:33:03;;;;;;;32.53;21.80;;;;;;;16.72;80.75;100862.97;4967766;28;20082;-80
2021/09/15 06:35:30;;;;;;;37.13;24.02;;;;;;;16.74;81.01;100865.34;4923612;29;20555;-80
2021/09/15 06:37:57;;;;;;;29.27;20.88;;;;;;;16.75;80.88;100867.78;4945040;28;20047;-80
2021/09/15 06:40:23;;;;;;;28.23;18.77;;;;;;;16.77;80.95;100871.00;4960897;28;20046;-80
2021/09/15 06:42:50;;;;;;;30.25;18.58;;;;;;;16.79;81.09;100867.81;4952191;28;20046;-80
2021/09/15 06:45:17;;;;;;;31.92;20.08;;;;;;;16.80;81.02;100869.44;4971048;28;20038;-80
2021/09/15 06:47:44;;;;;;;36.60;20.75;;;;;;;16.81;81.00;100866.22;4928503;28;20554;-80
2021/09/15 06:50:13;;;;;;;32.33;19.40;;;;;;;16.83;81.12;100868.66;4966802;28;20035;-80
2021/09/15 06:52:40;;;;;;;28.52;19.17;;;;;;;16.86;81.12;100873.50;4962108;28;20157;-80
2021/09/15 06:55:07;;;;;;;30.50;19.63;;;;;;;16.88;81.09;100868.31;4961153;28;20488;-80
2021/09/15 06:57:34;;;;;;;30.52;19.48;;;;;;;16.90;81.06;100868.72;4928228;28;20053;-80
2021/09/15 07:00:03;;;;;;;33.90;21.95;;;;;;;16.91;81.24;100875.94;4950256;28;20054;-80
2021/09/15 07:02:30;;;;;;;31.95;21.50;;;;;;;16.91;81.20;100876.75;4946419;28;20074;-80
2021/09/15 07:04:58;;;;;;;35.72;21.10;;;;;;;16.90;81.00;100877.09;4959653;28;20047;-80
2021/09/15 07:07:25;;;;;;;29.23;19.35;;;;;;;16.89;81.31;100878.31;4951809;28;20038;-80
2021/09/15 07:09:52;;;;;;;33.13;19.02;;;;;;;16.89;81.41;100883.91;4940769;28;20043;-80
2021/09/15 07:12:19;;;;;;;27.05;18.98;;;;;;;16.87;81.35;100878.69;4948939;28;20114;-80
2021/09/15 07:14:45;;;;;;;31.23;20.17;;;;;;;16.89;81.33;100884.69;4956967;28;20134;-81
2021/09/15 07:17:12;;;;;;;27.73;18.17;;;;;;;16.90;81.50;100891.09;4962646;28;20053;-80
2021/09/15 07:19:39;;;;;;;32.33;20.83;;;;;;;16.92;81.68;100897.91;4956432;28;20039;-80
2021/09/15 07:22:05;;;;;;;29.42;19.83;;;;;;;16.95;81.56;100890.75;4959348;28;20046;-79
2021/09/15 07:24:32;;;;;;;25.80;18.17;;;;;;;16.95;81.42;100887.94;4941700;28;20118;-79
2021/09/15 07:26:59;;;;;;;25.75;18.00;;;;;;;16.96;81.58;100895.16;4961142;28;20046;-80
2021/09/15 07:29:29;;;;;;;34.17;21.38;;;;;;;16.96;81.58;100897.97;4939826;28;20044;-80
2021/09/15 07:31:56;;;;;;;41.80;25.27;;;;;;;16.98;81.68;100893.59;4943646;28;20074;-81
2021/09/15 07:34:23;;;;;;;26.75;17.33;;;;;;;17.01;81.47;100900.41;4938646;28;20397;-80
2021/09/15 07:36:50;;;;;;;30.58;19.75;;;;;;;17.00;81.42;100907.16;4960404;28;20042;-80
2021/09/15 07:39:17;;;;;;;28.02;18.58;;;;;;;16.96;81.63;100906.34;4959216;28;20045;-79
2021/09/15 07:41:44;;;;;;;25.38;17.77;;;;;;;16.94;81.60;100911.53;4929993;28;20061;-80
2021/09/15 07:44:10;;;;;;;27.60;17.75;;;;;;;16.94;81.74;100903.13;4956195;28;20042;-79
2021/09/15 07:46:37;;;;;;;25.63;17.52;;;;;;;16.94;81.59;100898.31;4967771;28;20402;-80
2021/09/15 07:49:08;;;;;;;25.15;18.65;;;;;;;16.95;81.74;100905.53;4955517;28;20042;-80
2021/09/15 07:51:35;;;;;;;29.33;19.35;;;;;;;16.95;81.62;100911.13;4954468;28;20047;-80
2021/09/15 07:54:02;;;;;;;28.45;19.73;;;;;;;16.97;81.76;100913.56;4948743;28;20738;-81
2021/09/15 07:56:29;;;;;;;29.98;18.88;;;;;;;16.98;81.61;100903.97;4951920;28;20055;-80
2021/09/15 07:58:56;;;;;;;33.80;19.50;;;;;;;16.99;81.56;100900.78;4941086;28;20051;-80
2021/09/15 08:01:25;;;;;;;34.58;21.98;;;;;;;17.01;81.56;100903.19;4941841;28;20408;-81
2021/09/15 08:03:52;;;;;;;27.08;18.48;;;;;;;17.03;81.60;100912.81;4945487;28;20122;-80
2021/09/15 08:06:19;;;;;;;31.30;18.40;;;;;;;17.08;81.57;100891.28;4916339;28;20138;-80
2021/09/15 08:08:46;;;;;;;33.90;19.80;;;;;;;17.12;81.44;100915.31;4945212;28;20090;-79
2021/09/15 08:11:13;;;;;;;29.80;19.30;;;;;;;17.16;81.43;100915.31;4951438;29;20480;-79
2021/09/15 08:13:40;;;;;;;30.92;20.33;;;;;;;17.20;81.29;100911.38;4949462;29;20047;-79
2021/09/15 08:16:07;;;;;;;26.25;17.30;;;;;;;17.24;80.98;100911.38;4939239;29;20078;-79
2021/09/15 08:18:34;;;;;;;30.85;19.02;;;;;;;17.25;81.01;100915.81;4936047;29;20141;-79
2021/09/15 08:21:02;;;;;;;27.65;19.13;;;;;;;17.30;80.97;100915.44;4939666;29;20050;-79
2021/09/15 08:23:29;;;;;;;33.60;18.67;;;;;;;17.34;80.77;100922.69;4939213;28;20062;-79
2021/09/15 08:25:56;;;;;;;28.75;17.63;;;;;;;17.36;80.50;100916.72;4914836;29;20075;-79
2021/09/15 08:28:23;;;;;;;28.67;18.83;;;;;;;17.40;80.53;100918.34;4939011;29;20423;-80
2021/09/15 08:30:50;;;;;;;30.38;18.48;;;;;;;17.44;80.38;100918.38;4936759;29;20040;-80
2021/09/15 08:33:17;;;;;;;25.88;16.73;;;;;;;17.46;80.23;100922.41;4938755;29;20046;-79
2021/09/15 08:35:44;;;;;;;34.60;17.65;;;;;;;17.50;80.17;100931.63;4930928;29;20158;-79
2021/09/15 08:38:11;;;;;;;35.10;17.98;;;;;;;17.54;80.23;100926.91;4926261;29;20077;-79
2021/09/15 08:40:41;;;;;;;42.53;19.20;;;;;;;17.58;80.08;100932.50;4941779;29;20039;-79
2021/09/15 08:43:08;;;;;;;32.95;19.60;;;;;;;17.62;79.78;100928.56;4944954;28;20051;-80
2021/09/15 08:45:34;;;;;;;31.30;17.45;;;;;;;17.64;79.67;100933.75;4902989;29;20040;-80
2021/09/15 08:48:02;;;;;;;22.90;15.40;;;;;;;17.63;79.83;100941.34;4903523;29;20050;-79
2021/09/15 08:50:30;;;;;;;30.38;16.58;;;;;;;17.64;79.61;100947.75;4907224;29;20036;-79
2021/09/15 08:52:57;;;;;;;22.55;15.82;;;;;;;17.62;79.47;100939.75;4917342;28;20047;-79
2021/09/15 08:55:23;;;;;;;24.10;15.13;;;;;;;17.62;79.11;100945.34;4904821;28;20049;-79
2021/09/15 08:57:50;;;;;;;20.73;14.13;;;;;;;17.60;79.49;100956.16;4945862;28;20039;-79
2021/09/15 09:00:17;;;;;;;20.08;13.18;;;;;;;17.59;79.19;100956.53;4952107;28;20039;-79
2021/09/15 09:02:47;;;;;;;22.08;13.40;;;;;;;17.58;79.40;100955.72;4942102;28;20043;-79
2021/09/15 09:05:14;;;;;;;21.45;14.60;;;;;;;17.58;79.42;100960.50;4950760;28;20094;-79
2021/09/15 09:07:41;;;;;;;22.50;14.55;;;;;;;17.53;79.45;100956.06;4946711;28;20074;-79
2021/09/15 09:10:14;;;;;;;25.50;16.05;;;;;;;17.49;79.64;100952.41;4939475;28;20139;-79
2021/09/15 09:12:45;;;;;;;32.95;16.00;;;;;;;17.50;79.70;100956.81;4949801;28;20102;-79
2021/09/15 09:15:22;;;;;;;25.92;15.55;;;;;;;17.50;79.58;100959.59;4948765;28;20149;-80
2021/09/15 09:17:50;;;;;;;31.40;17.88;;;;;;;17.53;79.80;100958.88;4957567;28;20139;-80
2021/09/15 09:20:22;;;;;;;29.90;17.65;;;;;;;17.51;79.74;100960.41;4946732;28;20065;-79
2021/09/15 09:23:03;;;;;;;29.08;17.23;;;;;;;17.54;79.69;100960.50;4950746;28;20130;-79
2021/09/15 09:25:42;;;;;;;32.00;19.30;;;;;;;17.58;79.68;100961.31;4957234;28;20040;-79
2021/09/15 09:28:34;;;;;;;23.83;15.35;;;;;;;17.56;79.68;100962.88;4945240;28;20043;-79
2021/09/15 09:31:07;;;;;;;26.00;16.27;;;;;;;17.61;79.70;100968.94;4952468;28;20043;-80
2021/09/15 09:33:34;;;;;;;25.60;16.60;;;;;;;17.62;79.60;100964.97;4958674;28;20570;-79
2021/09/15 09:36:06;;;;;;;25.67;16.42;;;;;;;17.67;79.62;100960.19;4947125;29;20479;-80
2021/09/15 09:38:43;;;;;;;19.90;12.82;;;;;;;17.64;79.40;100962.56;4951559;28;20134;-79
2021/09/15 09:41:15;;;;;;;23.90;14.60;;;;;;;17.66;79.56;100958.59;4961821;28;20035;-79
2021/09/15 09:43:45;;;;;;;;;;;;;;;17.67;79.55;100951.78;4933174;28;20051;-80
2021/09/15 09:46:16;;;;;;;20.40;14.38;;;;;;;17.74;79.36;100963.06;4966960;28;20396;-79
2021/09/15 09:48:54;;;;;;;24.48;14.85;;;;;;;17.74;79.48;100965.84;4954339;28;20051;-80
2021/09/15 09:51:31;;;;;;;23.70;13.35;;;;;;;17.79;79.37;100971.09;4938541;28;20134;-80
2021/09/15 09:54:25;;;;;;;23.33;15.27;;;;;;;17.81;79.18;100965.91;4950400;28;20089;-80
2021/09/15 09:56:54;;;;;;;24.95;16.65;;;;;;;17.85;79.20;100969.50;4963487;28;20051;-80
2021/09/15 09:59:25;;;;;;;26.40;15.80;;;;;;;17.87;78.99;100976.34;4955688;28;20130;-79
2021/09/15 10:01:57;;;;;;;31.15;18.30;;;;;;;17.87;79.24;100972.75;4935427;29;20057;-80
2021/09/15 10:04:25;;;;;;;26.58;16.73;;;;;;;17.91;79.20;100973.56;4958244;28;20050;-79
2021/09/15 10:06:52;;;;;;;28.35;17.65;;;;;;;17.94;78.78;100972.78;4954900;28;20058;-80
2021/09/15 10:09:21;;;;;;;26.17;16.67;;;;;;;17.95;78.77;100974.41;4942581;28;20087;-81
2021/09/15 10:11:48;;;;;;;26.27;16.40;;;;;;;17.97;78.72;100977.63;4953413;28;20046;-80
2021/09/15 10:14:17;;;;;;;24.77;14.85;;;;;;;18.01;78.52;100984.84;4959091;28;20086;-80
2021/09/15 10:16:50;;;;;;;23.90;14.30;;;;;;;18.04;78.70;100986.06;4955445;28;20043;-80
2021/09/15 10:19:25;;;;;;;22.40;13.18;;;;;;;18.06;78.53;100989.28;4945874;28;20111;-78
2021/09/15 10:21:59;;;;;;;21.92;13.10;;;;;;;18.08;78.38;100986.91;4953601;28;20043;-79
2021/09/15 10:24:47;;;;;;;19.33;12.35;;;;;;;18.14;78.61;100988.13;4955019;28;20045;-79
2021/09/15 10:27:16;;;;;;;17.77;11.20;;;;;;;18.18;78.52;100983.38;4954041;28;20134;-78
2021/09/15 10:29:44;;;;;;;18.27;10.55;;;;;;;18.21;78.37;100982.59;4954388;28;20047;-79
2021/09/15 10:32:14;;;;;;;16.63;10.52;;;;;;;18.20;78.41;100986.56;4954187;28;20047;-78
2021/09/15 10:34:41;;;;;;;12.68;9.18;;;;;;;18.19;78.44;100979.34;4951710;28;20143;-79
2021/09/15 10:37:13;;;;;;;16.38;11.90;;;;;;;18.18;78.30;100975.78;4958118;28;20035;-78
2021/09/15 10:39:53;;;;;;;17.60;11.68;;;;;;;18.13;78.60;100981.75;4955169;28;20057;-80
2021/09/15 10:42:53;;;;;;;16.75;10.73;;;;;;;18.17;78.33;100981.75;4957294;28;20609;-80
2021/09/15 10:45:30;;;;;;;22.50;12.55;;;;;;;18.19;78.36;100979.34;4935098;28;20044;-79
2021/09/15 10:48:14;;;;;;;19.05;11.80;;;;;;;18.20;78.37;100992.19;4949653;28;20039;-81
2021/09/15 10:50:40;;;;;;;16.45;10.88;;;;;;;18.24;78.24;100981.81;4935449;28;20043;-79
2021/09/15 10:53:07;;;;;;;21.23;11.35;;;;;;;18.31;78.16;100981.84;4954639;28;20046;-81
2021/09/15 10:55:41;;;;;;;18.20;10.40;;;;;;;18.34;78.41;100981.06;4922303;28;20063;-79
2021/09/15 10:58:16;;;;;;;15.95;11.38;;;;;;;18.29;78.09;100978.63;4954077;28;20043;-80
2021/09/15 11:00:59;;;;;;;13.75;10.27;;;;;;;18.27;78.26;100970.59;4938157;29;20071;-79
2021/09/15 11:03:34;;;;;;;15.88;10.65;;;;;;;18.37;78.13;100977.47;4957382;28;20142;-79
2021/09/15 11:06:07;;;;;;;18.88;11.18;;;;;;;18.45;78.39;100969.91;4966886;28;20077;-79
2021/09/15 11:08:37;;;;;;;16.73;9.73;;;;;;;18.58;78.17;100974.81;4960304;28;20058;-80
2021/09/15 11:11:06;;;;;;;13.70;9.52;;;;;;;18.68;77.84;100973.25;4954374;28;20103;-81
2021/09/15 11:13:32;;;;;;;13.60;8.55;;;;;;;18.76;77.91;100970.06;4940140;29;20079;-79
2021/09/15 11:16:21;;;;;;;13.43;9.55;;;;;;;18.70;77.30;100976.44;4952343;28;20118;-79
2021/09/15 11:19:18;;;;;;;14.48;10.45;;;;;;;18.62;76.68;100972.81;4952444;28;20134;-79
2021/09/15 11:21:52;;;;;;;14.27;8.68;;;;;;;18.53;77.47;100969.56;4951872;28;20075;-79
2021/09/15 11:24:25;;;;;;;14.45;10.45;;;;;;;18.49;77.22;100971.56;4951144;28;20055;-79